Time;durP1;ratioP1;P1;durP2;ratioP2;P2;SDS_P1;SDS_P2;PMS_P1;PMS_P2;Temp;Humidity;BMP_temperature;BMP_pressure;BME280_temperature;BME280_humidity;BME280_pressure;Samples;Min_cycle;Max_cycle;Signal;HPM_P1;HPM_P2
2023/03/30 00:00:32;;;;;;;8.30;2.83;;;;;;;12.13;74.52;98707.06;5094604;28;20477;-58
2023/03/30 00:03:01;;;;;;;10.50;3.00;;;;;;;12.14;74.69;98711.38;5096400;28;20080;-60
2023/03/30 00:05:27;;;;;;;7.45;3.10;;;;;;;12.05;75.14;98717.25;5092313;28;20473;-58
2023/03/30 00:07:53;;;;;;;9.48;2.67;;;;;;;11.94;75.45;98715.59;5088905;28;20036;-58
2023/03/30 00:10:18;;;;;;;10.27;2.60;;;;;;;11.92;75.44;98714.25;5091436;28;20024;-59
2023/03/30 00:12:46;;;;;;;10.93;3.08;;;;;;;11.75;76.27;98711.75;5097829;28;20535;-59
2023/03/30 00:15:12;;;;;;;8.50;2.42;;;;;;;11.55;77.26;98709.78;5099435;28;20093;-59
2023/03/30 00:17:38;;;;;;;12.00;2.92;;;;;;;11.52;77.22;98704.94;5095930;28;20133;-59
2023/03/30 00:20:07;;;;;;;9.77;2.50;;;;;;;11.54;77.18;98702.81;5092684;28;20138;-59
2023/03/30 00:22:33;;;;;;;7.60;2.85;;;;;;;11.52;76.90;98704.94;5089187;28;20024;-59
2023/03/30 00:24:58;;;;;;;8.00;2.80;;;;;;;11.44;77.19;98709.72;5094852;28;20335;-59
2023/03/30 00:27:24;;;;;;;7.65;3.15;;;;;;;11.39;77.68;98717.75;5095378;28;20458;-59
2023/03/30 00:29:49;;;;;;;5.75;2.63;;;;;;;11.37;77.56;98702.97;5089829;28;20024;-59
2023/03/30 00:32:15;;;;;;;8.15;2.60;;;;;;;11.41;77.27;98698.72;5092957;28;20035;-58
2023/03/30 00:34:41;;;;;;;10.85;2.90;;;;;;;11.47;76.99;98696.88;5093510;28;20027;-59
2023/03/30 00:37:06;;;;;;;14.07;2.72;;;;;;;11.43;76.99;98697.38;5090553;28;20120;-59
2023/03/30 00:39:32;;;;;;;8.13;2.50;;;;;;;11.51;76.76;98689.91;5096508;28;20488;-59
2023/03/30 00:41:58;;;;;;;8.90;3.08;;;;;;;11.84;75.19;98694.06;5104240;28;20042;-59
2023/03/30 00:45:01;;;;;;;11.50;3.38;;;;;;;11.70;75.75;98685.69;5096411;28;20028;-59
2023/03/30 00:47:26;;;;;;;19.38;2.83;;;;;;;11.76;75.44;98678.47;5100652;28;20036;-59
2023/03/30 00:49:52;;;;;;;10.13;3.28;;;;;;;11.66;75.88;98690.78;5095813;28;20436;-59
2023/03/30 00:52:18;;;;;;;8.48;2.85;;;;;;;11.70;75.92;98690.25;5100988;28;20451;-59
2023/03/30 00:54:44;;;;;;;6.95;2.78;;;;;;;11.68;76.14;98695.88;5097863;28;20535;-59
2023/03/30 00:57:09;;;;;;;8.10;2.70;;;;;;;11.53;76.99;98690.44;5095131;28;20032;-59
2023/03/30 00:59:35;;;;;;;8.57;2.83;;;;;;;11.55;76.67;98702.53;5093814;28;20008;-59
2023/03/30 01:02:00;;;;;;;10.55;2.92;;;;;;;11.60;76.92;98720.53;5082521;28;20476;-59
2023/03/30 01:04:27;;;;;;;6.75;2.70;;;;;;;11.63;77.14;98714.63;5100030;27;20031;-59
2023/03/30 01:06:54;;;;;;;8.95;2.67;;;;;;;11.48;78.11;98712.69;5100304;28;20020;-59
2023/03/30 01:09:19;;;;;;;11.65;3.58;;;;;;;11.48;78.23;98699.25;5092784;28;20020;-59
2023/03/30 01:11:45;;;;;;;10.48;2.95;;;;;;;11.47;78.82;98691.50;5097007;28;20710;-59
2023/03/30 01:14:11;;;;;;;7.53;2.85;;;;;;;11.57;78.39;98680.81;5094996;28;20452;-60
2023/03/30 01:17:05;;;;;;;12.27;2.95;;;;;;;11.64;77.97;98697.47;5078847;28;20478;-58
2023/03/30 01:19:53;;;;;;;9.60;2.80;;;;;;;11.82;77.19;98734.59;5092372;28;20478;-58
2023/03/30 01:22:51;;;;;;;10.35;2.67;;;;;;;11.77;77.57;98733.78;5099728;28;20038;-58
2023/03/30 01:25:35;;;;;;;9.20;3.00;;;;;;;11.83;77.60;98746.13;5100964;28;20102;-58
2023/03/30 01:28:30;;;;;;;11.10;2.75;;;;;;;11.95;76.58;98752.13;5094065;28;20445;-58
2023/03/30 01:31:26;;;;;;;8.82;3.25;;;;;;;12.04;76.21;98739.00;5097351;28;20434;-59
2023/03/30 01:34:19;;;;;;;10.45;2.88;;;;;;;12.05;76.41;98732.56;5104786;28;20023;-59
2023/03/30 01:36:52;;;;;;;7.97;2.83;;;;;;;12.07;76.55;98727.72;5100095;28;20027;-58
2023/03/30 01:39:35;;;;;;;11.70;3.08;;;;;;;12.26;76.28;98731.53;5102989;28;20031;-59
2023/03/30 01:42:15;;;;;;;7.03;2.40;;;;;;;12.40;77.49;98739.09;5098281;28;20047;-58
2023/03/30 01:45:00;;;;;;;11.77;3.10;;;;;;;12.50;79.89;98720.28;5105425;28;20023;-58
2023/03/30 01:48:10;;;;;;;11.40;3.20;;;;;;;12.42;82.78;98707.38;5095270;28;20031;-58
2023/03/30 01:50:49;;;;;;;8.05;2.70;;;;;;;12.25;86.42;98697.66;5074942;28;20463;-59
2023/03/30 01:53:30;;;;;;;10.93;3.10;;;;;;;12.25;87.77;98657.38;5078857;28;20510;-59
2023/03/30 01:56:16;;;;;;;11.68;3.28;;;;;;;12.32;89.23;98632.94;5095153;28;20113;-58
2023/03/30 01:58:56;;;;;;;13.48;4.05;;;;;;;12.42;88.90;98627.56;5086365;28;20491;-58
2023/03/30 02:01:22;;;;;;;7.07;2.97;;;;;;;12.72;86.13;98625.94;5091947;28;20027;-59
2023/03/30 02:03:49;;;;;;;11.05;3.13;;;;;;;12.67;87.73;98634.81;5099248;28;20020;-59
2023/03/30 02:06:25;;;;;;;12.18;2.70;;;;;;;12.61;89.17;98618.97;5095818;28;20020;-59
2023/03/30 02:08:53;;;;;;;13.82;3.25;;;;;;;12.79;86.68;98622.97;5096992;28;20477;-58
2023/03/30 02:11:18;;;;;;;8.70;3.08;;;;;;;12.81;87.12;98635.06;5090460;28;20745;-59
2023/03/30 02:13:44;;;;;;;18.15;4.05;;;;;;;12.84;87.80;98645.28;5097003;28;20027;-59
2023/03/30 02:16:15;;;;;;;10.07;3.22;;;;;;;12.77;90.54;98638.56;5097953;28;20032;-58
2023/03/30 02:18:40;;;;;;;12.75;3.10;;;;;;;12.77;92.21;98652.00;5095444;28;20080;-58
2023/03/30 02:21:06;;;;;;;9.30;3.35;;;;;;;12.64;95.71;98635.34;5105659;28;20028;-58
2023/03/30 02:23:34;;;;;;;9.50;3.08;;;;;;;12.62;95.96;98628.63;5098761;28;20384;-59
2023/03/30 02:25:59;;;;;;;14.80;3.33;;;;;;;12.42;98.74;98624.88;5099006;28;20032;-59
2023/03/30 02:28:25;;;;;;;8.30;2.67;;;;;;;12.52;97.86;98641.00;5097818;28;20027;-59
2023/03/30 02:30:50;;;;;;;7.53;2.65;;;;;;;12.45;98.73;98645.03;5094794;28;20063;-61
2023/03/30 02:33:28;;;;;;;8.15;2.55;;;;;;;12.45;99.17;98674.59;5096900;28;20043;-59
2023/03/30 02:36:06;;;;;;;10.85;3.15;;;;;;;12.47;99.58;98662.50;5098361;28;20031;-58
2023/03/30 02:38:37;;;;;;;11.52;3.00;;;;;;;12.55;99.79;98633.47;5091868;28;20778;-59
2023/03/30 02:41:18;;;;;;;8.70;3.03;;;;;;;12.46;100.00;98643.97;5097756;28;20032;-58
2023/03/30 02:43:46;;;;;;;6.80;3.00;;;;;;;12.42;100.00;98651.75;5078780;28;20551;-58
2023/03/30 02:46:21;;;;;;;7.57;3.03;;;;;;;12.49;99.77;98648.81;5098452;28;20462;-61
2023/03/30 02:49:09;;;;;;;9.70;3.22;;;;;;;12.47;99.26;98608.75;5098401;28;20114;-58
2023/03/30 02:51:42;;;;;;;12.85;3.35;;;;;;;12.28;100.00;98603.13;5098004;28;20036;-59
2023/03/30 02:54:24;;;;;;;16.15;3.47;;;;;;;12.06;100.00;98519.31;5083654;28;20517;-59
2023/03/30 02:57:02;;;;;;;10.57;3.90;;;;;;;11.50;100.00;98438.72;5097702;28;20032;-58
2023/03/30 02:59:30;;;;;;;7.65;3.03;;;;;;;11.63;100.00;98478.44;5104134;28;20304;-59
2023/03/30 03:02:03;;;;;;;10.48;3.45;;;;;;;11.47;100.00;98476.81;5103188;28;20274;-59
2023/03/30 03:04:32;;;;;;;16.40;3.72;;;;;;;11.33;100.00;98481.88;5084474;28;20028;-59
2023/03/30 03:07:01;;;;;;;10.75;3.78;;;;;;;11.28;100.00;98490.72;5097116;28;20036;-59
2023/03/30 03:09:27;;;;;;;8.73;3.60;;;;;;;11.25;100.00;98499.31;5103222;28;20482;-59
2023/03/30 03:11:53;;;;;;;10.02;3.83;;;;;;;11.18;100.00;98504.09;5089379;28;20116;-59
2023/03/30 03:14:19;;;;;;;10.90;3.90;;;;;;;11.11;100.00;98517.00;5096683;28;20047;-59
2023/03/30 03:16:45;;;;;;;11.38;3.97;;;;;;;10.94;100.00;98526.03;5096107;28;20436;-59
2023/03/30 03:19:10;;;;;;;12.50;4.28;;;;;;;10.88;100.00;98528.94;5090516;28;20020;-59
2023/03/30 03:21:36;;;;;;;11.80;3.85;;;;;;;10.93;100.00;98535.16;5094583;28;20109;-59
2023/03/30 03:24:02;;;;;;;19.33;4.55;;;;;;;10.90;100.00;98530.28;5092027;28;20020;-60
2023/03/30 03:26:28;;;;;;;11.68;4.60;;;;;;;10.94;100.00;98527.91;5100408;28;20024;-58
2023/03/30 03:28:53;;;;;;;14.20;4.13;;;;;;;10.89;100.00;98526.00;5097283;28;20046;-59
2023/03/30 03:31:18;;;;;;;12.45;4.30;;;;;;;10.88;100.00;98523.56;5093911;28;20024;-59
2023/03/30 03:33:44;;;;;;;12.07;4.72;;;;;;;10.84;100.00;98534.03;5094083;28;20038;-59
2023/03/30 03:36:11;;;;;;;15.52;4.55;;;;;;;10.76;100.00;98548.72;5093517;28;20020;-59
2023/03/30 03:38:36;;;;;;;11.52;4.30;;;;;;;10.75;100.00;98552.47;5094934;28;20039;-59
2023/03/30 03:41:02;;;;;;;14.27;4.88;;;;;;;10.71;100.00;98554.06;5093449;28;20023;-59
2023/03/30 03:43:27;;;;;;;12.07;4.57;;;;;;;10.69;100.00;98558.88;5093538;28;20026;-59
2023/03/30 03:45:53;;;;;;;14.02;4.63;;;;;;;10.62;100.00;98533.38;5088327;28;20125;-59
2023/03/30 03:48:19;;;;;;;13.32;4.03;;;;;;;10.71;100.00;98524.59;5094419;28;20088;-59
2023/03/30 03:50:54;;;;;;;13.55;3.92;;;;;;;10.74;100.00;98485.72;5094610;28;20048;-58
2023/03/30 03:53:20;;;;;;;10.32;3.40;;;;;;;10.79;100.00;98462.44;5095712;28;20023;-60
2023/03/30 03:55:46;;;;;;;14.48;4.15;;;;;;;10.79;100.00;98475.03;5094413;28;20057;-61
2023/03/30 03:58:11;;;;;;;12.85;3.92;;;;;;;10.82;100.00;98465.66;5099503;28;20039;-61
2023/03/30 04:00:37;;;;;;;10.50;4.20;;;;;;;10.87;100.00;98485.25;5095270;28;20487;-58
2023/03/30 04:03:03;;;;;;;13.45;4.00;;;;;;;10.78;100.00;98482.28;5097269;28;20476;-61
2023/03/30 04:05:29;;;;;;;13.80;4.50;;;;;;;10.72;100.00;98482.50;5098766;28;20446;-61
2023/03/30 04:07:55;;;;;;;13.00;4.28;;;;;;;10.56;100.00;98490.47;5097833;28;20282;-59
2023/03/30 04:10:21;;;;;;;9.85;4.45;;;;;;;10.51;100.00;98489.66;5094498;28;20399;-59
2023/03/30 04:12:46;;;;;;;14.75;4.82;;;;;;;10.45;100.00;98477.28;5097398;28;20035;-59
2023/03/30 04:15:12;;;;;;;13.07;4.35;;;;;;;10.44;100.00;98481.84;5102029;28;20385;-60
2023/03/30 04:17:37;;;;;;;17.50;4.80;;;;;;;10.46;100.00;98477.03;5091864;28;20028;-60
2023/03/30 04:20:04;;;;;;;16.13;4.65;;;;;;;10.44;100.00;98481.84;5092397;28;20340;-60
2023/03/30 04:22:32;;;;;;;15.50;4.07;;;;;;;10.43;100.00;98495.47;5100060;28;20441;-59
2023/03/30 04:25:02;;;;;;;10.50;4.05;;;;;;;10.41;100.00;98501.13;5094573;28;20029;-59
2023/03/30 04:27:28;;;;;;;20.27;4.90;;;;;;;10.38;100.00;98493.56;5101267;28;20058;-59
2023/03/30 04:29:57;;;;;;;18.63;4.60;;;;;;;10.40;100.00;98483.41;5098577;28;20029;-59
2023/03/30 04:32:25;;;;;;;15.23;5.38;;;;;;;10.45;100.00;98488.00;5100664;28;20023;-59
2023/03/30 04:34:53;;;;;;;16.27;4.50;;;;;;;10.47;100.00;98486.66;5092803;28;20027;-60
2023/03/30 04:37:29;;;;;;;13.50;4.50;;;;;;;10.46;100.00;98490.41;5095302;28;20031;-59
2023/03/30 04:39:56;;;;;;;9.23;4.18;;;;;;;10.43;100.00;98477.53;5095765;28;20024;-59
2023/03/30 04:42:33;;;;;;;14.55;4.45;;;;;;;10.42;100.00;98473.25;5096732;28;20028;-60
2023/03/30 04:45:10;;;;;;;11.90;4.10;;;;;;;10.40;100.00;98448.59;5094105;28;20032;-60
2023/03/30 04:47:36;;;;;;;8.60;4.43;;;;;;;10.39;100.00;98463.06;5097791;28;20058;-61
2023/03/30 04:50:02;;;;;;;14.40;5.32;;;;;;;10.32;100.00;98483.91;5092796;28;20032;-58
2023/03/30 04:52:27;;;;;;;18.90;4.53;;;;;;;10.29;100.00;98485.22;5095326;28;20039;-58
2023/03/30 04:54:53;;;;;;;19.23;5.65;;;;;;;10.24;100.00;98500.44;5098152;28;20039;-58
2023/03/30 04:57:18;;;;;;;24.58;5.47;;;;;;;10.22;100.00;98514.06;5093341;28;20491;-59
2023/03/30 04:59:44;;;;;;;17.73;4.95;;;;;;;10.26;100.00;98507.16;5098788;28;20657;-61
2023/03/30 05:02:10;;;;;;;15.05;4.97;;;;;;;10.36;100.00;98504.56;5099254;28;20016;-59
2023/03/30 05:04:36;;;;;;;23.27;4.88;;;;;;;10.35;100.00;98491.41;5093958;28;20363;-61
2023/03/30 05:07:01;;;;;;;15.25;5.38;;;;;;;10.30;100.00;98492.19;5092031;28;20035;-59
2023/03/30 05:09:27;;;;;;;19.90;5.18;;;;;;;10.34;100.00;98481.78;5092763;28;20099;-59
2023/03/30 05:11:52;;;;;;;15.60;6.38;;;;;;;10.33;100.00;98475.63;5091012;28;20093;-59
2023/03/30 05:14:17;;;;;;;17.25;5.68;;;;;;;10.31;100.00;98471.59;5089093;28;20128;-59
2023/03/30 05:16:43;;;;;;;15.90;5.40;;;;;;;10.31;100.00;98458.19;5093749;28;20020;-58
2023/03/30 05:19:11;;;;;;;17.77;5.70;;;;;;;10.22;100.00;98454.34;5087386;28;20309;-59
2023/03/30 05:21:37;;;;;;;17.33;5.75;;;;;;;10.23;100.00;98469.34;5092439;28;20055;-59
2023/03/30 05:24:02;;;;;;;14.75;5.20;;;;;;;10.33;100.00;98464.06;5099691;28;20035;-59
2023/03/30 05:26:28;;;;;;;16.88;6.15;;;;;;;10.32;100.00;98473.19;5089959;28;20101;-59
2023/03/30 05:28:53;;;;;;;17.50;5.88;;;;;;;10.28;100.00;98480.13;5090375;28;20062;-59
2023/03/30 05:31:19;;;;;;;24.48;11.85;;;;;;;10.22;100.00;98486.50;5095400;28;20702;-60
2023/03/30 05:33:45;;;;;;;31.73;17.35;;;;;;;10.28;100.00;98488.16;5099975;28;20020;-60
2023/03/30 05:36:11;;;;;;;30.00;12.50;;;;;;;10.23;100.00;98496.13;5100673;28;20028;-60
2023/03/30 05:38:36;;;;;;;37.08;18.13;;;;;;;10.20;100.00;98512.72;5096875;28;20393;-59
2023/03/30 05:41:03;;;;;;;21.58;10.00;;;;;;;10.23;100.00;98513.00;5095528;28;20036;-59
2023/03/30 05:43:29;;;;;;;25.88;11.63;;;;;;;10.29;100.00;98516.56;5097519;28;20107;-59
2023/03/30 05:45:55;;;;;;;34.97;16.77;;;;;;;10.34;100.00;98522.75;5101556;28;20106;-59
2023/03/30 05:48:21;;;;;;;31.80;13.98;;;;;;;10.56;100.00;98511.09;5099275;28;20403;-59
2023/03/30 05:50:47;;;;;;;17.55;4.55;;;;;;;10.95;100.00;98506.19;5092332;27;20035;-61
2023/03/30 05:53:12;;;;;;;21.60;7.07;;;;;;;11.11;100.00;98506.25;5100903;27;20024;-59
2023/03/30 05:55:38;;;;;;;19.73;7.65;;;;;;;11.27;100.00;98510.59;5100179;28;20068;-59
2023/03/30 05:58:03;;;;;;;21.67;5.70;;;;;;;11.44;100.00;98503.09;5092960;28;20020;-59
2023/03/30 06:00:32;;;;;;;45.97;21.80;;;;;;;11.50;100.00;98503.91;5099087;28;20077;-59
2023/03/30 06:02:58;;;;;;;36.55;15.85;;;;;;;11.50;100.00;98503.13;5093908;28;20031;-59
2023/03/30 06:05:23;;;;;;;27.25;10.60;;;;;;;11.65;100.00;98489.72;5094172;28;20024;-60
2023/03/30 06:07:49;;;;;;;31.50;14.95;;;;;;;11.68;100.00;98491.84;5091169;28;20020;-60
2023/03/30 06:10:15;;;;;;;16.30;5.13;;;;;;;11.68;100.00;98483.00;5095139;28;20391;-59
2023/03/30 06:12:40;;;;;;;33.70;12.98;;;;;;;11.58;100.00;98479.25;5099699;28;20496;-59
2023/03/30 06:15:07;;;;;;;37.60;19.95;;;;;;;11.54;100.00;98488.91;5094560;28;20457;-59
2023/03/30 06:17:34;;;;;;;23.70;11.82;;;;;;;11.56;100.00;98491.34;5098403;28;20110;-59
2023/03/30 06:20:00;;;;;;;20.17;6.15;;;;;;;11.50;100.00;98495.06;5092195;28;20390;-59
2023/03/30 06:22:25;;;;;;;20.60;6.25;;;;;;;11.50;100.00;98503.91;5099266;28;20012;-59
2023/03/30 06:24:51;;;;;;;20.15;5.07;;;;;;;11.62;100.00;98519.78;5097597;28;20024;-59
2023/03/30 06:27:16;;;;;;;30.75;8.13;;;;;;;11.55;100.00;98521.91;5096201;28;20032;-59
2023/03/30 06:29:42;;;;;;;14.82;4.60;;;;;;;11.68;100.00;98518.69;5098325;28;20474;-59
2023/03/30 06:32:08;;;;;;;20.77;7.38;;;;;;;11.64;100.00;98537.22;5096113;28;20047;-61
2023/03/30 06:34:33;;;;;;;21.33;8.38;;;;;;;11.63;100.00;98549.06;5104099;28;20020;-59
2023/03/30 06:36:59;;;;;;;24.58;10.55;;;;;;;11.66;100.00;98555.75;5103401;28;20035;-59
2023/03/30 06:39:24;;;;;;;26.08;6.28;;;;;;;11.57;100.00;98560.03;5094443;28;20027;-61
2023/03/30 06:41:49;;;;;;;14.98;5.25;;;;;;;11.54;100.00;98569.41;5101044;28;20259;-60
2023/03/30 06:44:15;;;;;;;14.35;4.80;;;;;;;11.67;100.00;98562.72;5101119;28;20027;-58
2023/03/30 06:46:41;;;;;;;18.58;7.50;;;;;;;11.68;100.00;98558.16;5094969;28;20031;-61
2023/03/30 06:49:07;;;;;;;18.23;8.70;;;;;;;11.72;100.00;98554.69;5097664;28;20028;-59
2023/03/30 06:51:34;;;;;;;17.73;5.57;;;;;;;11.72;100.00;98565.41;5097875;28;20030;-61
2023/03/30 06:54:00;;;;;;;17.60;5.63;;;;;;;11.77;100.00;98557.38;5095881;28;20043;-61
2023/03/30 06:56:26;;;;;;;22.08;5.70;;;;;;;11.91;100.00;98543.47;5096371;28;20020;-60
2023/03/30 06:58:51;;;;;;;17.15;6.03;;;;;;;11.91;100.00;98556.91;5097048;28;20557;-60
2023/03/30 07:01:17;;;;;;;18.75;6.45;;;;;;;11.94;100.00;98561.75;5096845;28;20036;-60
2023/03/30 07:03:43;;;;;;;16.88;5.43;;;;;;;11.89;100.00;98553.69;5099036;28;20035;-61
2023/03/30 07:06:09;;;;;;;14.65;6.53;;;;;;;11.85;100.00;98561.41;5101984;28;20077;-61
2023/03/30 07:08:35;;;;;;;18.15;5.13;;;;;;;12.02;100.00;98558.50;5097667;28;20024;-61
2023/03/30 07:11:01;;;;;;;15.23;6.55;;;;;;;12.08;100.00;98542.13;5100007;28;20024;-60
2023/03/30 07:13:27;;;;;;;21.13;6.80;;;;;;;13.06;98.46;98542.75;5097966;28;20478;-61
2023/03/30 07:15:52;;;;;;;14.93;4.60;;;;;;;13.03;95.97;98546.00;5097546;28;20076;-60
2023/03/30 07:18:17;;;;;;;34.55;17.00;;;;;;;13.98;91.20;98558.41;5097418;28;20031;-60
2023/03/30 07:20:43;;;;;;;20.95;7.00;;;;;;;15.35;84.51;98543.00;5091357;28;20028;-62
2023/03/30 07:23:10;;;;;;;23.08;13.05;;;;;;;16.79;76.27;98532.34;5096071;28;20031;-60
2023/03/30 07:25:36;;;;;;;16.23;6.45;;;;;;;16.06;79.51;98555.50;5097992;28;20505;-59
2023/03/30 07:28:02;;;;;;;16.20;5.25;;;;;;;14.44;86.87;98552.63;5097660;28;20020;-60
2023/03/30 07:30:27;;;;;;;21.42;10.50;;;;;;;14.13;89.11;98562.06;5097793;28;20098;-58
2023/03/30 07:32:53;;;;;;;14.93;4.97;;;;;;;13.51;92.01;98567.06;5090116;28;20456;-58
2023/03/30 07:35:18;;;;;;;13.88;5.53;;;;;;;13.97;92.04;98572.16;5096574;28;20027;-58
2023/03/30 07:37:43;;;;;;;23.00;10.55;;;;;;;13.89;91.34;98572.75;5086558;28;20387;-61
2023/03/30 07:40:10;;;;;;;16.70;8.35;;;;;;;14.19;89.68;98571.72;5091974;28;20360;-60
2023/03/30 07:42:36;;;;;;;18.98;6.65;;;;;;;13.91;91.26;98567.91;5089930;28;20028;-60
2023/03/30 07:45:02;;;;;;;28.08;12.02;;;;;;;13.85;91.23;98566.31;5100937;28;20051;-60
2023/03/30 07:47:28;;;;;;;20.27;7.85;;;;;;;13.90;91.63;98572.44;5094057;28;20020;-60
2023/03/30 07:49:53;;;;;;;22.30;5.80;;;;;;;13.91;91.87;98574.06;5094069;28;20951;-58
2023/03/30 07:52:19;;;;;;;14.63;5.25;;;;;;;13.90;91.50;98569.75;5095799;28;20016;-60
2023/03/30 07:54:45;;;;;;;26.70;9.82;;;;;;;14.12;89.21;98571.22;5091334;28;20028;-59
2023/03/30 07:57:10;;;;;;;17.85;4.47;;;;;;;14.01;90.02;98570.50;5097361;28;20019;-59
2023/03/30 07:59:36;;;;;;;21.00;4.45;;;;;;;13.79;89.64;98560.94;5098107;28;20182;-60
2023/03/30 08:02:05;;;;;;;17.67;5.70;;;;;;;14.09;89.32;98550.25;5096589;28;20576;-60
2023/03/30 08:04:30;;;;;;;11.82;4.68;;;;;;;13.96;86.63;98544.41;5095229;28;20060;-60
2023/03/30 08:06:56;;;;;;;51.13;32.00;;;;;;;14.23;85.42;98554.69;5095002;28;20093;-60
2023/03/30 08:09:21;;;;;;;11.02;4.60;;;;;;;14.18;84.56;98556.66;5092461;28;20047;-60
2023/03/30 08:11:47;;;;;;;12.30;4.53;;;;;;;14.06;84.75;98556.19;5089114;28;20024;-59
2023/03/30 08:14:12;;;;;;;14.45;4.97;;;;;;;13.92;86.07;98554.13;5094623;28;20152;-60
2023/03/30 08:16:38;;;;;;;22.45;12.82;;;;;;;13.89;86.61;98560.09;5094706;28;20019;-60
2023/03/30 08:19:04;;;;;;;22.00;11.80;;;;;;;13.98;86.05;98555.72;5091365;28;20474;-61
2023/03/30 08:21:32;;;;;;;13.18;5.28;;;;;;;13.70;87.36;98568.00;5090362;28;20160;-60
2023/03/30 08:23:57;;;;;;;15.65;7.32;;;;;;;13.68;87.93;98572.06;5099857;28;20038;-59
2023/03/30 08:26:23;;;;;;;13.38;7.70;;;;;;;13.65;88.31;98578.00;5099381;28;20027;-58
2023/03/30 08:28:49;;;;;;;11.73;4.75;;;;;;;13.69;87.36;98573.69;5088391;28;20415;-61
2023/03/30 08:31:17;;;;;;;17.35;9.77;;;;;;;13.68;87.63;98577.44;5088081;28;20035;-59
2023/03/30 08:33:43;;;;;;;14.75;4.93;;;;;;;13.69;87.84;98579.06;5100055;28;20382;-61
2023/03/30 08:36:09;;;;;;;12.45;4.07;;;;;;;13.77;87.37;98583.88;5100391;28;20020;-60
2023/03/30 08:38:35;;;;;;;15.45;4.15;;;;;;;14.08;85.89;98580.94;5095704;28;20110;-60
2023/03/30 08:41:00;;;;;;;13.73;3.67;;;;;;;14.05;84.83;98586.91;5090229;28;20036;-59
2023/03/30 08:43:48;;;;;;;11.98;4.90;;;;;;;14.39;83.75;98579.63;5095337;28;20028;-59
2023/03/30 08:46:14;;;;;;;10.98;3.72;;;;;;;14.74;82.29;98588.50;5094833;28;20073;-59
2023/03/30 08:48:41;;;;;;;17.27;3.55;;;;;;;14.96;80.54;98581.81;5096087;28;20098;-59
2023/03/30 08:51:24;;;;;;;11.88;3.92;;;;;;;15.11;80.66;98587.03;5096564;28;20031;-59
2023/03/30 08:53:53;;;;;;;17.13;4.43;;;;;;;15.03;80.46;98583.06;5097806;28;20019;-59
2023/03/30 08:56:20;;;;;;;9.73;4.03;;;;;;;15.36;78.71;98582.44;5079469;28;20077;-59
2023/03/30 08:59:01;;;;;;;12.38;4.13;;;;;;;15.20;77.31;98587.19;5091743;28;20425;-59
2023/03/30 09:01:41;;;;;;;9.70;4.05;;;;;;;15.36;77.37;98582.44;5096541;28;20077;-59
2023/03/30 09:04:25;;;;;;;15.48;4.10;;;;;;;14.91;78.99;98573.78;5094866;28;20036;-59
2023/03/30 09:07:03;;;;;;;14.50;3.60;;;;;;;14.72;78.86;98579.88;5098699;28;20233;-60
2023/03/30 09:09:30;;;;;;;9.48;3.28;;;;;;;14.46;80.52;98573.91;5103692;28;20065;-59
2023/03/30 09:12:03;;;;;;;10.20;3.30;;;;;;;14.56;79.47;98571.16;5101037;28;20019;-60
2023/03/30 09:14:34;;;;;;;13.90;3.47;;;;;;;14.85;79.55;98557.66;5093502;28;20036;-59
2023/03/30 09:17:11;;;;;;;15.32;3.60;;;;;;;16.12;73.57;98573.25;5101229;28;20032;-59
2023/03/30 09:20:11;;;;;;;10.80;3.13;;;;;;;15.93;75.13;98572.50;5093931;28;20028;-59
2023/03/30 09:22:37;;;;;;;;;;;;;;;16.83;70.62;98569.66;5095238;28;20036;-59
2023/03/30 09:25:39;;;;;;;21.63;6.28;;;;;;;17.48;68.71;98574.84;5096475;28;20338;-59
2023/03/30 09:28:13;;;;;;;9.57;2.97;;;;;;;17.80;65.00;98568.47;5085000;28;20048;-58
2023/03/30 09:30:41;;;;;;;11.80;2.90;;;;;;;18.38;62.11;98576.88;5099013;28;20034;-58
2023/03/30 09:33:34;;;;;;;14.00;2.90;;;;;;;17.39;64.43;98588.28;5101512;28;20035;-59
2023/03/30 09:36:17;;;;;;;15.10;3.65;;;;;;;17.82;63.28;98589.84;5096014;28;20043;-60
2023/03/30 09:38:43;;;;;;;12.52;2.85;;;;;;;18.34;60.94;98590.25;5100204;28;20046;-58
2023/03/30 09:41:17;;;;;;;8.95;2.50;;;;;;;18.28;61.06;98592.28;5096040;28;20047;-58
2023/03/30 09:43:45;;;;;;;8.35;2.10;;;;;;;17.75;61.55;98581.31;5099776;27;20577;-60
2023/03/30 09:46:11;;;;;;;9.27;2.42;;;;;;;17.74;60.96;98593.25;5099738;28;20028;-60
2023/03/30 09:48:46;;;;;;;13.13;2.75;;;;;;;17.51;63.05;98595.91;5098959;28;20483;-60
2023/03/30 09:51:25;;;;;;;10.63;2.22;;;;;;;16.93;63.44;98599.25;5100170;28;20147;-60
2023/03/30 09:53:56;;;;;;;5.70;2.30;;;;;;;16.85;64.10;98598.03;5096948;28;20039;-59
2023/03/30 09:56:50;;;;;;;7.65;2.30;;;;;;;16.70;63.16;98614.47;5101119;28;20050;-59
2023/03/30 09:59:32;;;;;;;9.80;2.30;;;;;;;17.67;61.29;98601.78;5092766;28;20043;-59
2023/03/30 10:02:14;;;;;;;6.07;2.17;;;;;;;17.92;59.81;98615.91;5094915;28;20055;-59
2023/03/30 10:04:52;;;;;;;9.57;2.45;;;;;;;17.17;62.16;98626.09;5101834;28;20029;-59
2023/03/30 10:07:39;;;;;;;7.00;2.30;;;;;;;17.15;63.51;98625.63;5101076;28;20024;-59
2023/03/30 10:10:22;;;;;;;7.50;2.22;;;;;;;17.30;63.87;98616.38;5100641;28;20032;-60
2023/03/30 10:12:48;;;;;;;6.88;2.15;;;;;;;17.04;64.70;98614.97;5098639;28;20051;-60
2023/03/30 10:15:17;;;;;;;5.45;2.30;;;;;;;16.84;63.70;98601.81;5097221;28;20385;-60
2023/03/30 10:17:44;;;;;;;6.95;2.00;;;;;;;16.32;62.78;98587.53;5091475;28;20115;-60
2023/03/30 10:20:15;;;;;;;5.72;1.88;;;;;;;16.45;64.42;98603.03;5095297;28;20032;-60
2023/03/30 10:23:09;;;;;;;5.25;1.73;;;;;;;16.66;60.94;98608.06;5091669;28;20032;-61
2023/03/30 10:25:37;;;;;;;8.48;2.03;;;;;;;16.85;59.82;98622.38;5095559;28;20039;-60
2023/03/30 10:28:03;;;;;;;5.78;1.75;;;;;;;16.32;61.49;98614.56;5097461;28;20036;-61
2023/03/30 10:30:29;;;;;;;7.03;1.95;;;;;;;16.74;61.69;98615.50;5093019;28;20020;-59
2023/03/30 10:32:56;;;;;;;6.40;2.03;;;;;;;16.85;62.32;98616.16;5103760;28;20043;-59
2023/03/30 10:35:37;;;;;;;7.82;2.00;;;;;;;16.72;61.35;98618.50;5076454;28;20233;-60
2023/03/30 10:38:03;;;;;;;3.70;1.73;;;;;;;16.51;60.75;98609.94;5094355;28;20119;-60
2023/03/30 10:40:36;;;;;;;8.45;2.00;;;;;;;16.26;61.37;98629.28;5102750;27;20028;-60
2023/03/30 10:43:02;;;;;;;8.27;1.80;;;;;;;16.38;62.73;98624.22;5081214;28;20097;-60
2023/03/30 10:45:44;;;;;;;6.53;1.85;;;;;;;16.50;60.77;98627.28;5095407;28;20445;-60
2023/03/30 10:48:13;;;;;;;6.90;2.05;;;;;;;16.59;60.11;98625.47;5094985;28;20024;-59
2023/03/30 10:50:41;;;;;;;4.38;1.70;;;;;;;18.15;55.46;98628.41;5097364;28;20074;-58
2023/03/30 10:53:20;;;;;;;5.32;1.98;;;;;;;17.65;56.21;98623.78;5098738;27;20044;-59
2023/03/30 10:55:54;;;;;;;6.25;2.10;;;;;;;17.98;55.75;98622.84;5075454;28;20024;-58
2023/03/30 10:58:33;;;;;;;8.77;2.00;;;;;;;17.98;52.18;98620.13;5097911;28;20031;-59
2023/03/30 11:01:11;;;;;;;5.15;1.65;;;;;;;17.60;54.10;98621.19;5092784;28;20146;-59
2023/03/30 11:03:36;;;;;;;5.43;1.88;;;;;;;17.76;53.14;98621.66;5099596;28;20543;-58
2023/03/30 11:06:21;;;;;;;8.93;1.90;;;;;;;17.56;53.73;98625.59;5086214;28;20349;-63
2023/03/30 11:08:49;;;;;;;9.48;2.05;;;;;;;17.03;56.47;98629.63;5094718;28;20077;-59
2023/03/30 11:11:22;;;;;;;7.25;2.35;;;;;;;16.76;55.57;98629.53;5066450;28;20142;-60
2023/03/30 11:13:50;;;;;;;5.93;2.22;;;;;;;16.11;55.36;98639.22;5092091;28;20143;-62
2023/03/30 11:16:24;;;;;;;10.98;6.00;;;;;;;16.00;56.82;98680.19;5095430;28;20024;-60
2023/03/30 11:19:02;;;;;;;3.00;1.60;;;;;;;14.57;62.64;98679.81;5090489;28;20482;-60
2023/03/30 11:21:35;;;;;;;3.78;1.33;;;;;;;13.66;68.18;98676.56;5073705;27;20088;-60
2023/03/30 11:24:11;;;;;;;3.85;1.20;;;;;;;12.80;73.42;98665.72;5101770;27;20140;-60
2023/03/30 11:26:48;;;;;;;3.78;1.60;;;;;;;12.97;75.55;98672.69;5084562;28;20041;-59
2023/03/30 11:29:29;;;;;;;6.18;1.55;;;;;;;12.71;80.76;98694.25;5085615;28;20115;-59
2023/03/30 11:32:28;;;;;;;2.60;1.58;;;;;;;12.59;85.27;98691.81;5089670;28;20028;-60
2023/03/30 11:34:58;;;;;;;8.43;1.77;;;;;;;12.73;90.69;98697.47;5093984;28;20067;-60
2023/03/30 11:37:28;;;;;;;;;;;;;;;13.54;90.21;98682.25;5099989;28;20122;-60